Welcome to Northern Hawkes Bay. New Zealand.
PWS Header
      nz Flag



Hit Counter


W3C Valid W3C Valid logo


    Wairoa

Select any of the Stations below to visit their websites.










Historic Data from Weather Underground
Select the location of interest below. Wairoa is the default. Please have patience, this Data is slow to load in.
Northern Hawkes Bay Historical Data
Daily Summary for February 21, 2017 Units:  Metric    English   Both
« Previous Day
Next Day »
Daily Weekly Monthly Yearly Custom
  High: Low: Average:
Temperature: 24.1 °C 11.4 °C 17.2 °C
Dew Point: 15.9 °C 11.1 °C 13 °C
Humidity: 99% 50% 78%
Wind Speed: 12.2km/h 0.0km/h 3.9km/h
Wind Gust: 21.9km/h - -
Wind- - SW
Pressure: 1028.3 hPa 1021.9 hPa -
Precipitation: 0.0 mm    
Historical Graphs
 
 
Tabular Data for February 21, 2017
Time Temperature Dew Point Pressure Wind Wind Speed Wind Gust Humidity Rainfall Rate (Hourly) solar
00:03 14.7 °C 13.6 °C 1028.3 hPa Calm   2.6 km/h 93% 0.0 mm 0 W/m2
00:08 14.6 °C 13.5 °C 1028.0 hPa North 1.1 km/h 2.6 km/h 93% 0.0 mm 0 W/m2
00:13 14.6 °C 13.7 °C 1028.0 hPa North 1.1 km/h 3.5 km/h 94% 0.0 mm 0 W/m2
00:18 14.6 °C 13.7 °C 1028.0 hPa Calm   3.5 km/h 94% 0.0 mm 0 W/m2
00:23 14.4 °C 13.4 °C 1028.0 hPa Calm   3.5 km/h 94% 0.0 mm 0 W/m2
00:28 14.4 °C 13.6 °C 1028.3 hPa North 1.1 km/h 2.6 km/h 95% 0.0 mm 0 W/m2
00:33 14.3 °C 13.5 °C 1028.3 hPa NNW 1.1 km/h 3.5 km/h 95% 0.0 mm 0 W/m2
00:38 14.2 °C 13.4 °C 1028.0 hPa NW 2.6 km/h 3.5 km/h 95% 0.0 mm 0 W/m2
00:43 14.2 °C 13.4 °C 1028.0 hPa NW 2.6 km/h 5.0 km/h 95% 0.0 mm 0 W/m2
00:48 14.1 °C 13.5 °C 1028.0 hPa NW 1.1 km/h 5.0 km/h 96% 0.0 mm 0 W/m2
00:53 14.0 °C 13.4 °C 1028.0 hPa NNW 1.1 km/h 5.0 km/h 96% 0.0 mm 0 W/m2
00:58 13.9 °C 13.4 °C 1028.0 hPa North 1.1 km/h 3.5 km/h 97% 0.0 mm 0 W/m2
01:03 13.9 °C 13.4 °C 1028.0 hPa North 2.6 km/h 5.0 km/h 97% 0.0 mm 0 W/m2
01:20 13.7 °C 13.6 °C 1028.0 hPa North 2.6 km/h 5.0 km/h 99% 0.0 mm 0 W/m2
01:25 13.7 °C 13.6 °C 1027.7 hPa North 2.6 km/h 3.5 km/h 99% 0.0 mm 0 W/m2
01:30 13.7 °C 13.6 °C 1027.7 hPa North 2.6 km/h 5.0 km/h 99% 0.0 mm 0 W/m2
01:35 13.6 °C 13.4 °C 1027.7 hPa North 1.1 km/h 5.0 km/h 99% 0.0 mm 0 W/m2
01:40 13.6 °C 13.4 °C 1027.7 hPa North 1.1 km/h 3.5 km/h 99% 0.0 mm 0 W/m2
01:45 13.5 °C 13.3 °C 1027.7 hPa Calm   3.5 km/h 99% 0.0 mm 0 W/m2
01:50 13.3 °C 13.2 °C 1027.7 hPa North 1.1 km/h 2.6 km/h 99% 0.0 mm 0 W/m2
01:55 13.3 °C 13.2 °C 1027.7 hPa North 1.1 km/h 3.5 km/h 99% 0.0 mm 0 W/m2
02:00 13.3 °C 13.2 °C 1027.7 hPa North 3.5 km/h 5.0 km/h 99% 0.0 mm 0 W/m2
02:05 13.3 °C 13.2 °C 1027.7 hPa North 2.6 km/h 6.1 km/h 99% 0.0 mm 0 W/m2
02:10 13.2 °C 13.1 °C 1027.7 hPa Calm   6.1 km/h 99% 0.0 mm 0 W/m2
02:15 13.1 °C 12.9 °C 1027.7 hPa North 2.6 km/h 5.0 km/h 99% 0.0 mm 0 W/m2
02:20 13.0 °C 12.8 °C 1027.7 hPa NNW 2.6 km/h 5.0 km/h 99% 0.0 mm 0 W/m2
02:25 13.0 °C 12.8 °C 1027.3 hPa North 1.1 km/h 5.0 km/h 99% 0.0 mm 0 W/m2
02:30 13.0 °C 12.8 °C 1027.3 hPa North 2.6 km/h 5.0 km/h 99% 0.0 mm 0 W/m2
02:35 12.9 °C 12.4 °C 1027.3 hPa North 1.1 km/h 5.0 km/h 97% 0.0 mm 0 W/m2
02:40 12.9 °C 12.4 °C 1027.3 hPa North 1.1 km/h 3.5 km/h 97% 0.0 mm 0 W/m2
02:45 12.9 °C 12.4 °C 1027.3 hPa North 1.1 km/h 3.5 km/h 97% 0.0 mm 0 W/m2
02:50 12.9 °C 12.4 °C 1027.3 hPa North 2.6 km/h 5.0 km/h 97% 0.0 mm 0 W/m2
02:55 12.9 °C 12.4 °C 1027.3 hPa Calm   5.0 km/h 97% 0.0 mm 0 W/m2
03:00 12.9 °C 12.4 °C 1027.3 hPa North 2.6 km/h 5.0 km/h 97% 0.0 mm 0 W/m2
03:05 12.9 °C 12.4 °C 1027.3 hPa North 2.6 km/h 6.1 km/h 97% 0.0 mm 0 W/m2
03:10 12.9 °C 12.4 °C 1027.0 hPa NNW 3.5 km/h 6.1 km/h 97% 0.0 mm 0 W/m2
03:15 12.9 °C 12.4 °C 1027.0 hPa NNW 1.1 km/h 5.0 km/h 97% 0.0 mm 0 W/m2
03:20 12.8 °C 12.3 °C 1027.0 hPa NNW 2.6 km/h 5.0 km/h 97% 0.0 mm 0 W/m2
03:25 12.8 °C 12.3 °C 1027.3 hPa North 3.5 km/h 5.0 km/h 97% 0.0 mm 0 W/m2
03:30 12.7 °C 12.2 °C 1027.3 hPa North 3.5 km/h 5.0 km/h 97% 0.0 mm 0 W/m2
03:35 12.7 °C 12.2 °C 1027.0 hPa NNW 2.6 km/h 5.0 km/h 97% 0.0 mm 0 W/m2
03:40 12.6 °C 12.2 °C 1027.0 hPa NW 3.5 km/h 6.1 km/h 97% 0.0 mm 0 W/m2
03:45 12.6 °C 12.2 °C 1027.0 hPa NNW 2.6 km/h 6.1 km/h 97% 0.0 mm 0 W/m2
03:50 12.6 °C 12.2 °C 1027.0 hPa NNW 2.6 km/h 6.1 km/h 97% 0.0 mm 0 W/m2
03:55 12.6 °C 12.2 °C 1027.0 hPa NNW 3.5 km/h 6.1 km/h 97% 0.0 mm 0 W/m2
04:00 12.5 °C 12.1 °C 1027.0 hPa NNW 3.5 km/h 6.1 km/h 97% 0.0 mm 0 W/m2
04:05 12.5 °C 12.1 °C 1027.0 hPa NNW 3.5 km/h 6.1 km/h 97% 0.0 mm 0 W/m2
04:10 12.5 °C 12.1 °C 1027.0 hPa NNW 2.6 km/h 6.1 km/h 97% 0.0 mm 0 W/m2
04:15 12.4 °C 11.9 °C 1026.6 hPa NNW 2.6 km/h 6.1 km/h 97% 0.0 mm 0 W/m2
04:20 12.4 °C 11.9 °C 1026.6 hPa NW 2.6 km/h 5.0 km/h 97% 0.0 mm 0 W/m2
04:25 12.4 °C 11.9 °C 1026.6 hPa NW 2.6 km/h 5.0 km/h 97% 0.0 mm 0 W/m2
04:30 12.3 °C 11.8 °C 1026.6 hPa NW 3.5 km/h 6.1 km/h 97% 0.0 mm 0 W/m2
04:35 12.3 °C 11.8 °C 1026.6 hPa NNW 2.6 km/h 6.1 km/h 97% 0.0 mm 0 W/m2
04:40 12.3 °C 11.8 °C 1026.3 hPa NNW 2.6 km/h 7.2 km/h 97% 0.0 mm 0 W/m2
04:45 12.3 °C 11.8 °C 1026.3 hPa NNW 3.5 km/h 7.2 km/h 97% 0.0 mm 0 W/m2
04:50 12.3 °C 11.8 °C 1026.0 hPa NNW 2.6 km/h 6.1 km/h 97% 0.0 mm 0 W/m2
04:55 12.2 °C 11.7 °C 1026.0 hPa NNW 1.1 km/h 6.1 km/h 97% 0.0 mm 0 W/m2
05:00 12.2 °C 11.7 °C 1026.0 hPa NNW 3.5 km/h 6.1 km/h 97% 0.0 mm 0 W/m2
05:05 12.2 °C 11.7 °C 1026.0 hPa NNW 3.5 km/h 8.7 km/h 97% 0.0 mm 0 W/m2
05:08 12.2 °C 11.7 °C 1026.0 hPa NNW 5.0 km/h 8.7 km/h 97% 0.0 mm 0 W/m2
05:13 12.2 °C 11.7 °C 1026.0 hPa NW 3.5 km/h 8.7 km/h 97% 0.0 mm 0 W/m2
05:18 12.2 °C 11.7 °C 1026.0 hPa NNW 1.1 km/h 7.2 km/h 97% 0.0 mm 0 W/m2
05:23 12.1 °C 11.7 °C 1026.0 hPa NNW 2.6 km/h 7.2 km/h 97% 0.0 mm 0 W/m2
05:28 12.2 °C 11.7 °C 1026.0 hPa NNW 2.6 km/h 5.0 km/h 97% 0.0 mm 0 W/m2
05:33 12.2 °C 11.7 °C 1025.6 hPa NNW 3.5 km/h 7.2 km/h 97% 0.0 mm 0 W/m2
05:38 12.2 °C 11.7 °C 1025.6 hPa NNW 2.6 km/h 7.2 km/h 97% 0.0 mm 0 W/m2
05:43 12.2 °C 11.7 °C 1026.0 hPa NW 3.5 km/h 7.2 km/h 97% 0.0 mm 0 W/m2
05:48 12.2 °C 11.7 °C 1025.6 hPa NW 3.5 km/h 6.1 km/h 97% 0.0 mm 0 W/m2
05:53 12.1 °C 11.7 °C 1026.0 hPa NW 3.5 km/h 6.1 km/h 97% 0.0 mm 0 W/m2
05:58 12.0 °C 11.6 °C 1026.0 hPa NNW 2.6 km/h 6.1 km/h 97% 0.0 mm 0 W/m2
06:03 11.8 °C 11.5 °C 1025.6 hPa NW 3.5 km/h 6.1 km/h 98% 0.0 mm 0 W/m2
06:08 11.7 °C 11.4 °C 1025.6 hPa NW 2.6 km/h 6.1 km/h 98% 0.0 mm 0 W/m2
06:13 11.7 °C 11.4 °C 1025.6 hPa NNW 3.5 km/h 6.1 km/h 98% 0.0 mm 0 W/m2
06:18 11.6 °C 11.3 °C 1025.3 hPa NNW 5.0 km/h 7.2 km/h 98% 0.0 mm 0 W/m2
06:23 11.6 °C 11.3 °C 1025.6 hPa NW 6.1 km/h 8.7 km/h 98% 0.0 mm 0 W/m2
06:28 11.5 °C 11.2 °C 1025.6 hPa NNW 5.0 km/h 8.7 km/h 98% 0.0 mm 0 W/m2
06:33 11.5 °C 11.2 °C 1025.6 hPa NW 5.0 km/h 9.7 km/h 98% 0.0 mm 0 W/m2
06:37 11.5 °C 11.2 °C 1025.6 hPa NW 3.5 km/h 9.7 km/h 98% 0.0 mm 0 W/m2
06:42 11.5 °C 11.2 °C 1025.6 hPa NNW 3.5 km/h 9.7 km/h 98% 0.0 mm 2 W/m2
06:47 11.4 °C 11.1 °C 1025.6 hPa NNW 2.6 km/h 8.7 km/h 98% 0.0 mm 4 W/m2
06:52 11.4 °C 11.1 °C 1025.6 hPa NNW 3.5 km/h 7.2 km/h 98% 0.0 mm 7 W/m2
06:57 11.4 °C 11.1 °C 1025.6 hPa NNW 3.5 km/h 7.2 km/h 98% 0.0 mm 11 W/m2
07:02 11.4 °C 11.1 °C 1026.0 hPa NNW 5.0 km/h 7.2 km/h 98% 0.0 mm 13 W/m2
07:07 11.4 °C 11.1 °C 1026.0 hPa NNW 1.1 km/h 7.2 km/h 98% 0.0 mm 19 W/m2
07:12 11.5 °C 11.2 °C 1026.0 hPa North 3.5 km/h 7.2 km/h 98% 0.0 mm 22 W/m2
07:17 11.5 °C 11.2 °C 1025.6 hPa NNW 3.5 km/h 7.2 km/h 98% 0.0 mm 26 W/m2
07:22 11.5 °C 11.2 °C 1026.0 hPa NNW 7.2 km/h 11.1 km/h 98% 0.0 mm 55 W/m2
07:27 11.6 °C 11.3 °C 1026.0 hPa North 5.0 km/h 11.1 km/h 98% 0.0 mm 60 W/m2
07:32 11.8 °C 11.5 °C 1026.3 hPa North 2.6 km/h 9.7 km/h 98% 0.0 mm 76 W/m2
07:37 12.0 °C 11.6 °C 1026.0 hPa NNW 6.1 km/h 9.7 km/h 97% 0.0 mm 86 W/m2
07:42 12.0 °C 11.6 °C 1026.3 hPa NNW 1.1 km/h 9.7 km/h 97% 0.0 mm 86 W/m2
07:47 12.1 °C 11.7 °C 1026.3 hPa NNW 2.6 km/h 8.7 km/h 97% 0.0 mm 97 W/m2
07:52 12.2 °C 11.7 °C 1026.3 hPa NNW 3.5 km/h 8.7 km/h 97% 0.0 mm 92 W/m2
07:57 12.3 °C 11.8 °C 1026.3 hPa NNW 2.6 km/h 8.7 km/h 97% 0.0 mm 102 W/m2
08:02 12.3 °C 11.8 °C 1026.3 hPa NNW 3.5 km/h 11.1 km/h 97% 0.0 mm 104 W/m2
08:07 12.5 °C 12.1 °C 1026.3 hPa NNW 3.5 km/h 11.1 km/h 97% 0.0 mm 126 W/m2
08:12 12.8 °C 12.3 °C 1026.3 hPa NNW 6.1 km/h 8.7 km/h 97% 0.0 mm 158 W/m2
08:17 12.9 °C 12.4 °C 1026.0 hPa NNW 5.0 km/h 9.7 km/h 97% 0.0 mm 142 W/m2
08:22 12.9 °C 12.4 °C 1026.3 hPa NNW 7.2 km/h 12.2 km/h 97% 0.0 mm 230 W/m2
08:27 13.2 °C 13.1 °C 1026.0 hPa NNW 6.1 km/h 12.2 km/h 99% 0.0 mm 180 W/m2
08:32 13.6 °C 13.4 °C 1026.3 hPa NNW 9.7 km/h 12.2 km/h 99% 0.0 mm 245 W/m2
08:37 13.7 °C 13.6 °C 1026.3 hPa NW 7.2 km/h 12.2 km/h 99% 0.0 mm 263 W/m2
08:42 14.0 °C 13.8 °C 1026.0 hPa NNW 9.7 km/h 12.2 km/h 99% 0.0 mm 270 W/m2
08:47 14.3 °C 14.2 °C 1026.3 hPa NW 5.0 km/h 12.2 km/h 99% 0.0 mm 281 W/m2
08:52 14.6 °C 14.4 °C 1026.3 hPa NW 6.1 km/h 12.2 km/h 99% 0.0 mm 302 W/m2
08:57 15.0 °C 14.8 °C 1026.3 hPa NW 6.1 km/h 11.1 km/h 99% 0.0 mm 309 W/m2
09:02 15.3 °C 15.2 °C 1026.3 hPa NW 6.1 km/h 11.1 km/h 99% 0.0 mm 301 W/m2
09:07 15.6 °C 15.3 °C 1026.3 hPa NNW 7.2 km/h 11.1 km/h 98% 0.0 mm 299 W/m2
09:12 16.0 °C 15.1 °C 1026.3 hPa North 8.7 km/h 12.2 km/h 94% 0.0 mm 302 W/m2
09:17 16.3 °C 14.8 °C 1026.3 hPa North 6.1 km/h 12.2 km/h 91% 0.0 mm 310 W/m2
09:22 16.5 °C 14.5 °C 1026.3 hPa North 8.7 km/h 12.2 km/h 88% 0.0 mm 322 W/m2
09:39 17.4 °C 14.7 °C 1026.3 hPa NW 6.1 km/h 8.7 km/h 84% 0.0 mm 370 W/m2
09:45 17.7 °C 15.0 °C 1026.6 hPa NW 5.0 km/h 8.7 km/h 84% 0.0 mm 398 W/m2
09:50 18.2 °C 15.3 °C 1026.6 hPa NNW 2.6 km/h 9.7 km/h 83% 0.0 mm 416 W/m2
09:55 19.3 °C 15.9 °C 1026.6 hPa NNW 5.0 km/h 9.7 km/h 81% 0.0 mm 435 W/m2
10:00 19.8 °C 15.7 °C 1026.3 hPa NNW 2.6 km/h 7.2 km/h 77% 0.0 mm 447 W/m2
10:05 19.7 °C 15.4 °C 1026.3 hPa NNW 3.5 km/h 8.7 km/h 76% 0.0 mm 469 W/m2
10:10 19.7 °C 15.4 °C 1026.3 hPa NW 2.6 km/h 8.7 km/h 76% 0.0 mm 484 W/m2
10:15 20.5 °C 15.5 °C 1026.3 hPa NNW 1.1 km/h 8.7 km/h 73% 0.0 mm 503 W/m2
10:20 21.2 °C 15.7 °C 1026.3 hPa NW 5.0 km/h 7.2 km/h 71% 0.0 mm 530 W/m2
10:25 21.5 °C 13.9 °C 1026.3 hPa WNW 2.6 km/h 7.2 km/h 62% 0.0 mm 557 W/m2
10:30 21.6 °C 14.5 °C 1026.3 hPa NW 2.6 km/h 7.2 km/h 64% 0.0 mm 465 W/m2
10:35 22.4 °C 14.3 °C 1026.3 hPa NW 2.6 km/h 6.1 km/h 60% 0.0 mm 235 W/m2
10:40 21.9 °C 14.6 °C 1026.3 hPa South 7.2 km/h 9.7 km/h 63% 0.0 mm 219 W/m2
10:45 20.3 °C 14.4 °C 1026.3 hPa South 7.2 km/h 12.2 km/h 69% 0.0 mm 177 W/m2
10:50 19.3 °C 14.6 °C 1026.0 hPa South 6.1 km/h 12.2 km/h 74% 0.0 mm 199 W/m2
10:55 19.2 °C 14.7 °C 1026.0 hPa South 3.5 km/h 9.7 km/h 75% 0.0 mm 198 W/m2
11:00 19.3 °C 14.8 °C 1026.0 hPa SSW 3.5 km/h 8.7 km/h 75% 0.0 mm 267 W/m2
11:05 19.9 °C 14.7 °C 1026.0 hPa SSW 2.6 km/h 8.7 km/h 72% 0.0 mm 305 W/m2
11:10 20.5 °C 13.9 °C 1026.0 hPa Calm   7.2 km/h 66% 0.0 mm 399 W/m2
11:15 21.3 °C 14.0 °C 1026.3 hPa SSE 3.5 km/h 8.7 km/h 63% 0.0 mm 372 W/m2
11:20 21.0 °C 13.9 °C 1026.0 hPa South 6.1 km/h 11.1 km/h 64% 0.0 mm 387 W/m2
11:25 21.0 °C 13.9 °C 1026.0 hPa South 6.1 km/h 11.1 km/h 64% 0.0 mm 323 W/m2
11:30 21.2 °C 13.7 °C 1026.0 hPa South 5.0 km/h 11.1 km/h 62% 0.0 mm 857 W/m2
11:31 21.3 °C 13.7 °C 1026.0 hPa South 6.1 km/h 11.1 km/h 62% 0.0 mm 773 W/m2
11:36 21.2 °C 12.9 °C 1026.0 hPa South 8.7 km/h 11.1 km/h 59% 0.0 mm 367 W/m2
11:41 20.9 °C 13.3 °C 1026.0 hPa South 6.1 km/h 11.1 km/h 62% 0.0 mm 345 W/m2
11:46 20.9 °C 13.6 °C 1026.0 hPa South 6.1 km/h 11.1 km/h 63% 0.0 mm 327 W/m2
11:51 20.5 °C 13.0 °C 1026.0 hPa SSW 7.2 km/h 11.1 km/h 62% 0.0 mm 371 W/m2
11:56 20.7 °C 13.4 °C 1026.0 hPa SSW 7.2 km/h 11.1 km/h 63% 0.0 mm 364 W/m2
12:01 20.5 °C 13.0 °C 1026.0 hPa SSW 7.2 km/h 12.2 km/h 62% 0.0 mm 401 W/m2
12:06 20.7 °C 13.4 °C 1025.6 hPa SSW 6.1 km/h 12.2 km/h 63% 0.0 mm 1072 W/m2
12:11 20.9 °C 13.6 °C 1026.0 hPa SSW 9.7 km/h 12.2 km/h 63% 0.0 mm 965 W/m2
12:16 21.0 °C 13.2 °C 1025.6 hPa South 11.1 km/h 13.4 km/h 61% 0.0 mm 955 W/m2
12:21 21.3 °C 13.7 °C 1025.6 hPa South 11.1 km/h 13.4 km/h 62% 0.0 mm 950 W/m2
12:26 21.2 °C 13.7 °C 1025.6 hPa South 8.7 km/h 13.4 km/h 62% 0.0 mm 526 W/m2
12:31 21.5 °C 13.7 °C 1025.6 hPa SSW 5.0 km/h 17.2 km/h 61% 0.0 mm 704 W/m2
12:36 21.6 °C 13.3 °C 1025.6 hPa SSW 5.0 km/h 17.2 km/h 59% 0.0 mm 374 W/m2
12:41 21.3 °C 13.2 °C 1025.6 hPa South 2.6 km/h 14.8 km/h 60% 0.0 mm 477 W/m2
12:46 21.3 °C 12.4 °C 1025.3 hPa South 8.7 km/h 13.4 km/h 57% 0.0 mm 376 W/m2
12:51 21.0 °C 12.9 °C 1025.3 hPa SSE 6.1 km/h 14.8 km/h 60% 0.0 mm 345 W/m2
12:56 20.9 °C 13.3 °C 1025.3 hPa South 2.6 km/h 14.8 km/h 62% 0.0 mm 477 W/m2
13:01 21.3 °C 13.0 °C 1025.3 hPa South 2.6 km/h 11.1 km/h 59% 0.0 mm 667 W/m2
13:06 21.4 °C 13.1 °C 1024.9 hPa SSE 9.7 km/h 15.8 km/h 59% 0.0 mm 666 W/m2
13:11 21.2 °C 13.4 °C 1025.3 hPa South 6.1 km/h 15.8 km/h 61% 0.0 mm 398 W/m2
13:16 21.5 °C 14.2 °C 1025.3 hPa SSE 7.2 km/h 13.4 km/h 63% 0.0 mm 1007 W/m2
13:21 21.8 °C 14.4 °C 1024.9 hPa SSE 12.2 km/h 14.8 km/h 63% 0.0 mm 1018 W/m2
13:26 21.5 °C 14.2 °C 1024.9 hPa SSE 3.5 km/h 18.3 km/h 63% 0.0 mm 972 W/m2
13:31 22.2 °C 14.8 °C 1024.9 hPa SSE 6.1 km/h 18.3 km/h 63% 0.0 mm 965 W/m2
13:36 22.1 °C 14.2 °C 1025.3 hPa SSE 9.7 km/h 17.2 km/h 61% 0.0 mm 995 W/m2
13:41 21.7 °C 14.6 °C 1025.3 hPa South 8.7 km/h 17.2 km/h 64% 0.0 mm 705 W/m2
13:46 21.7 °C 14.1 °C 1024.9 hPa SSE 7.2 km/h 18.3 km/h 62% 0.0 mm 911 W/m2
13:51 21.3 °C 14.2 °C 1024.9 hPa South 11.1 km/h 18.3 km/h 64% 0.0 mm 944 W/m2
13:56 21.6 °C 15.0 °C 1024.9 hPa South 7.2 km/h 18.3 km/h 66% 0.0 mm 906 W/m2
14:01 21.9 °C 14.6 °C 1024.9 hPa SSE 9.7 km/h 14.8 km/h 63% 0.0 mm 904 W/m2
14:06 21.5 °C 14.2 °C 1024.9 hPa SSE 6.1 km/h 17.2 km/h 63% 0.0 mm 715 W/m2
14:11 21.9 °C 14.1 °C 1024.9 hPa SSE 3.5 km/h 17.2 km/h 61% 0.0 mm 875 W/m2
14:16 21.8 °C 14.2 °C 1024.6 hPa SE 8.7 km/h 15.8 km/h 62% 0.0 mm 863 W/m2
14:21 21.6 °C 14.0 °C 1024.6 hPa SE 2.6 km/h 14.8 km/h 62% 0.0 mm 848 W/m2
14:26 21.5 °C 13.9 °C 1024.6 hPa SE 1.1 km/h 12.2 km/h 62% 0.0 mm 838 W/m2
14:31 21.8 °C 14.2 °C 1024.3 hPa SE 3.5 km/h 12.2 km/h 62% 0.0 mm 827 W/m2
14:36 22.2 °C 14.3 °C 1024.3 hPa SE 5.0 km/h 12.2 km/h 61% 0.0 mm 819 W/m2
14:41 22.3 °C 13.9 °C 1024.6 hPa SSE 1.1 km/h 13.4 km/h 59% 0.0 mm 796 W/m2
14:46 22.5 °C 13.8 °C 1024.3 hPa SSE 2.6 km/h 13.4 km/h 58% 0.0 mm 734 W/m2
14:51 22.7 °C 14.1 °C 1024.3 hPa Calm   12.2 km/h 58% 0.0 mm 777 W/m2
14:56 22.7 °C 13.5 °C 1024.3 hPa SE 2.6 km/h 11.1 km/h 56% 0.0 mm 757 W/m2
15:01 22.6 °C 13.4 °C 1024.3 hPa SE 2.6 km/h 12.2 km/h 56% 0.0 mm 730 W/m2
15:06 22.5 °C 13.0 °C 1023.9 hPa SE 5.0 km/h 15.8 km/h 55% 0.0 mm 343 W/m2
15:11 22.8 °C 13.6 °C 1023.9 hPa SSE 1.1 km/h 15.8 km/h 56% 0.0 mm 720 W/m2
15:16 22.4 °C 13.5 °C 1023.9 hPa SSE 1.1 km/h 15.8 km/h 57% 0.0 mm 707 W/m2
15:21 22.8 °C 13.6 °C 1023.6 hPa SSE 1.1 km/h 15.8 km/h 56% 0.0 mm 513 W/m2
15:26 22.6 °C 12.6 °C 1023.6 hPa SE 3.5 km/h 15.8 km/h 53% 0.0 mm 677 W/m2
15:31 23.2 °C 13.4 °C 1023.6 hPa SSE 9.7 km/h 15.8 km/h 54% 0.0 mm 667 W/m2
15:36 22.7 °C 12.7 °C 1023.6 hPa SE 5.0 km/h 17.2 km/h 53% 0.0 mm 653 W/m2
15:41 22.8 °C 12.4 °C 1023.2 hPa SE 8.7 km/h 17.2 km/h 52% 0.0 mm 103 W/m2
15:46 22.8 °C 12.7 °C 1023.2 hPa SE 9.7 km/h 18.3 km/h 53% 0.0 mm 625 W/m2
15:51 22.7 °C 12.9 °C 1023.2 hPa Calm   18.3 km/h 54% 0.0 mm 612 W/m2
15:56 22.9 °C 13.1 °C 1023.2 hPa East 11.1 km/h 17.2 km/h 54% 0.0 mm 535 W/m2
16:01 23.1 °C 13.6 °C 1023.2 hPa East 6.1 km/h 19.5 km/h 55% 0.0 mm 584 W/m2
16:06 22.9 °C 13.1 °C 1023.2 hPa SE 2.6 km/h 19.5 km/h 54% 0.0 mm 550 W/m2
16:11 23.0 °C 12.9 °C 1023.2 hPa SSE 6.1 km/h 15.8 km/h 53% 0.0 mm 440 W/m2
16:16 23.0 °C 12.9 °C 1023.2 hPa SSE 2.6 km/h 15.8 km/h 53% 0.0 mm 270 W/m2
16:21 23.3 °C 13.5 °C 1023.2 hPa SE 9.7 km/h 14.8 km/h 54% 0.0 mm 120 W/m2
16:26 23.3 °C 13.5 °C 1022.9 hPa SE 6.1 km/h 14.8 km/h 54% 0.0 mm 177 W/m2
16:31 23.0 °C 12.9 °C 1022.9 hPa SE 3.5 km/h 19.5 km/h 53% 0.0 mm 508 W/m2
16:36 23.2 °C 13.7 °C 1022.9 hPa ESE 3.5 km/h 20.9 km/h 55% 0.0 mm 319 W/m2
16:41 23.4 °C 13.0 °C 1022.9 hPa ESE 8.7 km/h 20.9 km/h 52% 0.0 mm 488 W/m2
16:46 23.3 °C 13.2 °C 1022.9 hPa SE 2.6 km/h 18.3 km/h 53% 0.0 mm 474 W/m2
16:51 23.5 °C 13.1 °C 1022.9 hPa SE 1.1 km/h 17.2 km/h 52% 0.0 mm 463 W/m2
16:56 23.5 °C 12.5 °C 1022.9 hPa ESE 2.6 km/h 13.4 km/h 50% 0.0 mm 452 W/m2
17:01 23.7 °C 13.6 °C 1022.6 hPa SE 2.6 km/h 14.8 km/h 53% 0.0 mm 433 W/m2
17:06 23.7 °C 13.3 °C 1022.6 hPa SE 7.2 km/h 14.8 km/h 52% 0.0 mm 419 W/m2
17:11 23.5 °C 13.1 °C 1022.6 hPa ESE 5.0 km/h 18.3 km/h 52% 0.0 mm 408 W/m2
17:16 23.7 °C 13.6 °C 1022.6 hPa ESE 5.0 km/h 18.3 km/h 53% 0.0 mm 391 W/m2
17:21 23.7 °C 13.3 °C 1022.6 hPa SE 6.1 km/h 14.8 km/h 52% 0.0 mm 375 W/m2
17:26 24.1 °C 13.1 °C 1022.2 hPa ESE 5.0 km/h 17.2 km/h 50% 0.0 mm 360 W/m2
17:31 23.7 °C 13.0 °C 1022.2 hPa SE 6.1 km/h 17.2 km/h 51% 0.0 mm 344 W/m2
17:36 22.9 °C 12.6 °C 1022.2 hPa ESE 6.1 km/h 19.5 km/h 52% 0.0 mm 333 W/m2
17:41 22.6 °C 12.6 °C 1022.2 hPa ESE 8.7 km/h 19.5 km/h 53% 0.0 mm 313 W/m2
17:46 22.4 °C 12.4 °C 1022.2 hPa East 8.7 km/h 19.5 km/h 53% 0.0 mm 308 W/m2
17:51 22.3 °C 12.6 °C 1022.2 hPa East 11.1 km/h 20.9 km/h 54% 0.0 mm 284 W/m2
17:56 22.2 °C 12.4 °C 1022.2 hPa ESE 7.2 km/h 20.9 km/h 54% 0.0 mm 270 W/m2
18:01 22.4 °C 12.7 °C 1022.2 hPa ESE 9.7 km/h 20.9 km/h 54% 0.0 mm 257 W/m2
18:06 22.3 °C 12.6 °C 1022.6 hPa ESE 9.7 km/h 18.3 km/h 54% 0.0 mm 240 W/m2
18:11 22.2 °C 12.4 °C 1022.2 hPa ESE 9.7 km/h 20.9 km/h 54% 0.0 mm 227 W/m2
18:16 22.3 °C 12.6 °C 1022.2 hPa ESE 8.7 km/h 20.9 km/h 54% 0.0 mm 210 W/m2
18:21 22.0 °C 12.3 °C 1022.2 hPa ESE 8.7 km/h 18.3 km/h 54% 0.0 mm 197 W/m2
18:26 21.8 °C 12.7 °C 1021.9 hPa SSE 8.7 km/h 21.9 km/h 56% 0.0 mm 171 W/m2
18:31 21.2 °C 12.6 °C 1021.9 hPa SE 7.2 km/h 21.9 km/h 58% 0.0 mm 81 W/m2
18:36 20.8 °C 13.3 °C 1022.2 hPa ESE 3.5 km/h 19.5 km/h 62% 0.0 mm 82 W/m2
18:41 20.6 °C 13.1 °C 1022.2 hPa SE 7.2 km/h 17.2 km/h 62% 0.0 mm 50 W/m2
18:46 20.4 °C 13.1 °C 1022.2 hPa SE 3.5 km/h 17.2 km/h 63% 0.0 mm 61 W/m2
18:51 20.5 °C 13.2 °C 1022.2 hPa SE 5.0 km/h 17.2 km/h 63% 0.0 mm 54 W/m2
18:56 20.6 °C 13.3 °C 1022.2 hPa ESE 6.1 km/h 17.2 km/h 63% 0.0 mm 67 W/m2
19:01 20.4 °C 13.1 °C 1022.2 hPa ESE 2.6 km/h 14.8 km/h 63% 0.0 mm 54 W/m2
19:06 20.5 °C 13.2 °C 1022.2 hPa ESE 5.0 km/h 14.8 km/h 63% 0.0 mm 61 W/m2
19:11 20.4 °C 13.1 °C 1022.2 hPa ESE 6.1 km/h 11.1 km/h 63% 0.0 mm 62 W/m2
19:16 20.6 °C 13.1 °C 1022.2 hPa East 3.5 km/h 13.4 km/h 62% 0.0 mm 59 W/m2
19:21 20.3 °C 13.1 °C 1022.2 hPa East 1.1 km/h 15.8 km/h 63% 0.0 mm 32 W/m2
19:26 19.9 °C 13.1 °C 1022.2 hPa East 7.2 km/h 15.8 km/h 65% 0.0 mm 33 W/m2
19:31 19.8 °C 13.3 °C 1022.2 hPa East 3.5 km/h 14.8 km/h 66% 0.0 mm 39 W/m2
19:36 19.6 °C 13.1 °C 1022.2 hPa ESE 6.1 km/h 14.8 km/h 66% 0.0 mm 23 W/m2
19:41 19.4 °C 12.9 °C 1022.2 hPa ESE 7.2 km/h 14.8 km/h 66% 0.0 mm 20 W/m2
19:46 19.3 °C 13.1 °C 1022.2 hPa East 5.0 km/h 13.4 km/h 67% 0.0 mm 15 W/m2
19:51 19.1 °C 12.8 °C 1022.2 hPa ESE 5.0 km/h 13.4 km/h 67% 0.0 mm 12 W/m2
19:56 19.0 °C 12.9 °C 1022.2 hPa ESE 6.1 km/h 12.2 km/h 68% 0.0 mm 8 W/m2
20:01 18.9 °C 13.1 °C 1022.2 hPa ESE 5.0 km/h 12.2 km/h 69% 0.0 mm 4 W/m2
20:06 18.8 °C 13.0 °C 1022.2 hPa East 7.2 km/h 12.2 km/h 69% 0.0 mm 1 W/m2
20:11 18.7 °C 13.1 °C 1022.2 hPa Calm   9.7 km/h 70% 0.0 mm 0 W/m2
20:16 18.6 °C 13.1 °C 1022.2 hPa East 7.2 km/h 11.1 km/h 70% 0.0 mm 0 W/m2
20:21 18.5 °C 12.7 °C 1022.2 hPa East 3.5 km/h 12.2 km/h 69% 0.0 mm 0 W/m2
20:26 18.5 °C 12.7 °C 1022.2 hPa East 2.6 km/h 12.2 km/h 69% 0.0 mm 0 W/m2
20:31 18.3 °C 12.5 °C 1022.6 hPa East 1.1 km/h 12.2 km/h 69% 0.0 mm 0 W/m2
20:36 18.2 °C 12.4 °C 1022.2 hPa Calm   12.2 km/h 69% 0.0 mm 0 W/m2
20:52 17.3 °C 12.2 °C 1022.6 hPa Calm   2.6 km/h 72% 0.0 mm 0 W/m2
20:57 17.0 °C 12.1 °C 1022.9 hPa Calm   1.1 km/h 73% 0.0 mm 0 W/m2
21:02 16.8 °C 12.3 °C 1022.9 hPa Calm   1.1 km/h 75% 0.0 mm 0 W/m2
21:07 16.6 °C 12.2 °C 1022.9 hPa Calm   1.1 km/h 75% 0.0 mm 0 W/m2
21:12 16.5 °C 12.3 °C 1022.9 hPa NE 2.6 km/h 6.1 km/h 76% 0.0 mm 0 W/m2
21:17 16.4 °C 12.4 °C 1022.9 hPa NE 1.1 km/h 7.2 km/h 77% 0.0 mm 0 W/m2
21:22 16.5 °C 12.4 °C 1023.2 hPa NE 2.6 km/h 7.2 km/h 77% 0.0 mm 0 W/m2
21:27 16.5 °C 12.4 °C 1022.9 hPa NE 3.5 km/h 6.1 km/h 77% 0.0 mm 0 W/m2
21:32 16.5 °C 12.4 °C 1023.2 hPa NE 1.1 km/h 6.1 km/h 77% 0.0 mm 0 W/m2
21:37 16.4 °C 12.4 °C 1023.2 hPa Calm   5.0 km/h 77% 0.0 mm 0 W/m2
21:42 16.2 °C 12.2 °C 1023.2 hPa Calm   5.0 km/h 77% 0.0 mm 0 W/m2
21:47 16.0 °C 12.0 °C 1022.9 hPa Calm   2.6 km/h 77% 0.0 mm 0 W/m2
21:52 15.9 °C 12.1 °C 1023.2 hPa Calm     78% 0.0 mm 0 W/m2
21:57 15.8 °C 12.2 °C 1022.9 hPa Calm     79% 0.0 mm 0 W/m2
22:02 15.7 °C 12.3 °C 1023.2 hPa Calm     80% 0.0 mm 0 W/m2
22:07 15.5 °C 12.1 °C 1023.2 hPa Calm     80% 0.0 mm 0 W/m2
22:12 15.5 °C 12.4 °C 1023.2 hPa Calm     82% 0.0 mm 0 W/m2
22:29 15.1 °C 12.2 °C 1023.2 hPa Calm     83% 0.0 mm 0 W/m2
22:34 15.1 °C 12.4 °C 1023.2 hPa Calm     84% 0.0 mm 0 W/m2
22:40 15.2 °C 12.7 °C 1023.2 hPa Calm     85% 0.0 mm 0 W/m2
22:45 15.1 °C 12.6 °C 1022.9 hPa Calm     85% 0.0 mm 0 W/m2
22:50 15.0 °C 12.5 °C 1022.9 hPa Calm     85% 0.0 mm 0 W/m2
22:55 14.8 °C 12.5 °C 1022.9 hPa Calm     86% 0.0 mm 0 W/m2
23:00 14.7 °C 12.4 °C 1022.9 hPa Calm     86% 0.0 mm 0 W/m2
23:05 14.5 °C 12.2 °C 1022.9 hPa Calm     86% 0.0 mm 0 W/m2
23:10 14.4 °C 12.1 °C 1022.9 hPa Calm     86% 0.0 mm 0 W/m2
23:15 14.4 °C 12.3 °C 1022.6 hPa Calm     87% 0.0 mm 0 W/m2
23:20 14.3 °C 12.3 °C 1022.9 hPa Calm     88% 0.0 mm 0 W/m2
23:25 14.2 °C 12.2 °C 1022.9 hPa Calm     88% 0.0 mm 0 W/m2
23:30 14.0 °C 12.1 °C 1022.6 hPa Calm     88% 0.0 mm 0 W/m2
23:35 14.0 °C 12.2 °C 1022.6 hPa Calm     89% 0.0 mm 0 W/m2
23:40 14.0 °C 12.2 °C 1022.6 hPa Calm     89% 0.0 mm 0 W/m2
23:45 13.9 °C 12.4 °C 1022.2 hPa Calm     91% 0.0 mm 0 W/m2
23:50 13.9 °C 12.6 °C 1022.2 hPa Calm     92% 0.0 mm 0 W/m2
23:55 13.8 °C 12.6 °C 1022.2 hPa Calm     92% 0.0 mm 0 W/m2
Northern Hawkes Bay. New Zealand Historic Data
Compliments of Weather Underground - 2 mb